Time;durP1;ratioP1;P1;durP2;ratioP2;P2;SDS_P1;SDS_P2;PMS_P1;PMS_P2;Temp;Humidity;BMP_temperature;BMP_pressure;BME280_temperature;BME280_humidity;BME280_pressure;Samples;Min_cycle;Max_cycle;Signal;HPM_P1;HPM_P2
2023/05/27 00:01:28;;;;;;;3.00;1.10;;;;;;;;;;5020999;28;59714;-67
2023/05/27 00:03:53;;;;;;;2.33;1.00;;;;;;;;;;5021495;28;59796;-64
2023/05/27 00:06:18;;;;;;;1.63;0.60;;;;;;;;;;5019521;28;59223;-65
2023/05/27 00:08:43;;;;;;;4.03;1.40;;;;;;;;;;5021946;28;59516;-65
2023/05/27 00:11:08;;;;;;;1.80;1.07;;;;;;;;;;5018994;28;59313;-65
2023/05/27 00:13:34;;;;;;;4.70;1.53;;;;;;;;;;5018470;28;59925;-67
2023/05/27 00:15:59;;;;;;;2.50;1.13;;;;;;;;;;5022968;28;59314;-67
2023/05/27 00:18:24;;;;;;;2.33;0.80;;;;;;;;;;5019776;28;59605;-66
2023/05/27 00:20:50;;;;;;;1.03;0.80;;;;;;;;;;5016577;28;59509;-67
2023/05/27 00:23:15;;;;;;;1.33;0.85;;;;;;;;;;5021611;28;59463;-67
2023/05/27 00:25:40;;;;;;;1.58;0.80;;;;;;;;;;5019315;28;59504;-67
2023/05/27 00:28:06;;;;;;;0.70;0.53;;;;;;;;;;5021011;28;59308;-63
2023/05/27 00:30:31;;;;;;;1.57;0.73;;;;;;;;;;5020105;28;59144;-67
2023/05/27 00:32:56;;;;;;;1.10;0.68;;;;;;;;;;5020014;28;59181;-64
2023/05/27 00:35:21;;;;;;;0.85;0.85;;;;;;;;;;5020928;28;59737;-67
2023/05/27 00:37:47;;;;;;;0.85;0.60;;;;;;;;;;5022306;28;59755;-67
2023/05/27 00:40:14;;;;;;;1.90;1.03;;;;;;;;;;5018702;28;59202;-66
2023/05/27 00:42:39;;;;;;;1.57;0.70;;;;;;;;;;5022972;28;60630;-66
2023/05/27 00:45:05;;;;;;;0.93;0.70;;;;;;;;;;5017663;28;60811;-67
2023/05/27 00:47:32;;;;;;;2.05;1.38;;;;;;;;;;5019755;28;59602;-67
2023/05/27 00:49:57;;;;;;;2.28;0.55;;;;;;;;;;5019224;28;59357;-67
2023/05/27 00:52:23;;;;;;;1.17;0.50;;;;;;;;;;5019192;28;59959;-67
2023/05/27 00:54:48;;;;;;;0.73;0.73;;;;;;;;;;5019839;28;59074;-66
2023/05/27 00:57:13;;;;;;;0.63;0.63;;;;;;;;;;5019188;28;59544;-66
2023/05/27 00:59:38;;;;;;;4.33;1.27;;;;;;;;;;5019924;28;59416;-66
2023/05/27 01:02:04;;;;;;;1.43;0.50;;;;;;;;;;5020262;28;59107;-63
2023/05/27 01:04:30;;;;;;;0.93;0.85;;;;;;;;;;5020877;28;60249;-67
2023/05/27 01:07:14;;;;;;;1.47;0.93;;;;;;;;;;5018563;28;59452;-67
2023/05/27 01:09:44;;;;;;;1.30;1.00;;;;;;;;;;5020750;28;59161;-66
2023/05/27 01:12:12;;;;;;;1.95;1.02;;;;;;;;;;5018108;28;58680;-67
2023/05/27 01:14:38;;;;;;;;;;;;;;;;;;5018162;28;59649;-67
2023/05/27 01:17:04;;;;;;;0.45;0.45;;;;;;;;;;5019884;28;60223;-67
2023/05/27 01:19:32;;;;;;;1.13;0.65;;;;;;;;;;5016860;28;59569;-67
2023/05/27 01:22:00;;;;;;;2.00;0.65;;;;;;;;;;5020052;28;59252;-66
2023/05/27 01:24:25;;;;;;;0.98;0.40;;;;;;;;;;5022745;28;59514;-67
2023/05/27 01:26:51;;;;;;;1.58;0.60;;;;;;;;;;5021135;28;59168;-65
2023/05/27 01:29:16;;;;;;;1.13;0.57;;;;;;;;;;5019036;28;59136;-67
2023/05/27 01:31:43;;;;;;;0.70;0.50;;;;;;;;;;5015162;28;61103;-67
2023/05/27 01:34:09;;;;;;;1.17;0.50;;;;;;;;;;5020744;28;59181;-67
2023/05/27 01:36:37;;;;;;;0.60;0.60;;;;;;;;;;5020045;28;62688;-65
2023/05/27 01:39:03;;;;;;;1.33;1.23;;;;;;;;;;5019081;28;59760;-65
2023/05/27 01:41:28;;;;;;;1.58;0.90;;;;;;;;;;5019565;28;59294;-66
2023/05/27 01:43:54;;;;;;;0.60;0.60;;;;;;;;;;5021087;28;60206;-66
2023/05/27 01:46:19;;;;;;;1.30;0.55;;;;;;;;;;5017511;28;59386;-67
2023/05/27 01:48:45;;;;;;;0.60;0.60;;;;;;;;;;5020258;28;59065;-65
2023/05/27 01:51:10;;;;;;;0.55;0.50;;;;;;;;;;5019794;28;59340;-65
2023/05/27 01:53:35;;;;;;;2.40;0.63;;;;;;;;;;5015665;28;59557;-67
2023/05/27 01:56:01;;;;;;;1.77;1.03;;;;;;;;;;5021541;28;59131;-65
2023/05/27 01:58:26;;;;;;;2.60;0.70;;;;;;;;;;5017509;28;59239;-66
2023/05/27 02:00:51;;;;;;;0.43;0.40;;;;;;;;;;5018568;28;60244;-67
2023/05/27 02:03:17;;;;;;;0.67;0.40;;;;;;;;;;5017049;28;61363;-64
2023/05/27 02:05:42;;;;;;;0.73;0.38;;;;;;;;;;5019910;28;59433;-66
2023/05/27 02:08:08;;;;;;;0.52;0.50;;;;;;;;;;5018212;28;59742;-67
2023/05/27 02:10:33;;;;;;;1.10;0.55;;;;;;;;;;5018628;28;60846;-67
2023/05/27 02:12:58;;;;;;;0.90;0.90;;;;;;;;;;5017650;28;59608;-67
2023/05/27 02:15:24;;;;;;;0.60;0.40;;;;;;;;;;5018967;28;59505;-67
2023/05/27 02:17:54;;;;;;;0.68;0.60;;;;;;;;;;5019187;28;59629;-67
2023/05/27 02:20:20;;;;;;;0.68;0.40;;;;;;;;;;5018676;28;59184;-65
2023/05/27 02:22:45;;;;;;;0.60;0.60;;;;;;;;;;5021325;28;59826;-67
2023/05/27 02:25:10;;;;;;;0.77;0.70;;;;;;;;;;5016926;28;59627;-67
2023/05/27 02:27:35;;;;;;;0.90;0.50;;;;;;;;;;5018989;28;59703;-67
2023/05/27 02:30:01;;;;;;;2.47;1.30;;;;;;;;;;5016935;28;62165;-62
2023/05/27 02:32:26;;;;;;;1.07;0.97;;;;;;;;;;5017268;28;59323;-67
2023/05/27 02:34:51;;;;;;;0.40;0.40;;;;;;;;;;5018031;28;59559;-66
2023/05/27 02:37:16;;;;;;;1.17;0.98;;;;;;;;;;5016746;28;60121;-66
2023/05/27 02:39:42;;;;;;;2.30;0.97;;;;;;;;;;5022617;28;59030;-67
2023/05/27 02:42:07;;;;;;;0.77;0.70;;;;;;;;;;5017220;28;59218;-67
2023/05/27 02:44:32;;;;;;;1.17;0.60;;;;;;;;;;5011751;28;59557;-63
2023/05/27 02:46:57;;;;;;;0.85;0.50;;;;;;;;;;5013836;28;59392;-67
2023/05/27 02:49:22;;;;;;;0.77;0.60;;;;;;;;;;5017805;28;59724;-67
2023/05/27 02:51:47;;;;;;;1.07;0.60;;;;;;;;;;5018603;28;59045;-67
2023/05/27 02:54:13;;;;;;;0.40;0.40;;;;;;;;;;5022201;28;60393;-64
2023/05/27 02:56:38;;;;;;;0.65;0.65;;;;;;;;;;5020157;28;60958;-66
2023/05/27 02:59:03;;;;;;;0.63;0.63;;;;;;;;;;5019478;28;59535;-66
2023/05/27 03:01:28;;;;;;;0.80;0.57;;;;;;;;;;5022122;28;59646;-67
2023/05/27 03:03:53;;;;;;;0.68;0.63;;;;;;;;;;5021941;28;59223;-62
2023/05/27 03:06:18;;;;;;;0.73;0.70;;;;;;;;;;5020696;28;59576;-66
2023/05/27 03:08:45;;;;;;;1.00;0.90;;;;;;;;;;5021290;28;59061;-68
2023/05/27 03:11:10;;;;;;;0.52;0.47;;;;;;;;;;5018748;28;58565;-67
2023/05/27 03:13:35;;;;;;;1.10;1.00;;;;;;;;;;5021964;28;59672;-67
2023/05/27 03:16:00;;;;;;;0.52;0.40;;;;;;;;;;5024518;28;59222;-65
2023/05/27 03:18:25;;;;;;;0.50;0.50;;;;;;;;;;5019608;28;59202;-67
2023/05/27 03:20:51;;;;;;;0.60;0.40;;;;;;;;;;5022893;28;59203;-65
2023/05/27 03:23:16;;;;;;;0.87;0.63;;;;;;;;;;5021726;28;59599;-67
2023/05/27 03:25:44;;;;;;;0.60;0.60;;;;;;;;;;5022630;28;59282;-66
2023/05/27 03:28:09;;;;;;;;;;;;;;;;;;5020860;28;59703;-67
2023/05/27 03:30:35;;;;;;;0.40;0.40;;;;;;;;;;5021083;28;59837;-67
2023/05/27 03:33:01;;;;;;;0.95;0.90;;;;;;;;;;5021212;28;59442;-67
2023/05/27 03:35:26;;;;;;;0.82;0.70;;;;;;;;;;5021324;28;59034;-67
2023/05/27 03:37:51;;;;;;;0.75;0.60;;;;;;;;;;5020176;28;59560;-67
2023/05/27 03:40:16;;;;;;;0.50;0.50;;;;;;;;;;5023003;28;59316;-67
2023/05/27 03:42:41;;;;;;;0.60;0.60;;;;;;;;;;5022779;28;59441;-67
2023/05/27 03:45:07;;;;;;;0.80;0.80;;;;;;;;;;5019674;28;59617;-65
2023/05/27 03:47:34;;;;;;;0.75;0.63;;;;;;;;;;5021861;28;60220;-67
2023/05/27 03:49:59;;;;;;;0.68;0.43;;;;;;;;;;5020392;28;59144;-67
2023/05/27 03:52:24;;;;;;;0.85;0.73;;;;;;;;;;5023108;28;59424;-67
2023/05/27 03:54:49;;;;;;;1.90;1.42;;;;;;;;;;5020857;28;59539;-67
2023/05/27 03:57:15;;;;;;;0.97;0.60;;;;;;;;;;5019361;28;59896;-67
2023/05/27 03:59:41;;;;;;;1.05;0.57;;;;;;;;;;5018497;28;59346;-66
2023/05/27 04:02:06;;;;;;;0.50;0.50;;;;;;;;;;5017400;28;60896;-68
2023/05/27 04:04:31;;;;;;;0.68;0.68;;;;;;;;;;5018141;28;59703;-65
2023/05/27 04:06:56;;;;;;;1.40;0.70;;;;;;;;;;5021589;28;59080;-66
2023/05/27 04:09:21;;;;;;;0.93;0.53;;;;;;;;;;5020457;28;59167;-67
2023/05/27 04:11:47;;;;;;;0.93;0.40;;;;;;;;;;5020565;28;59638;-67
2023/05/27 04:14:12;;;;;;;0.40;0.40;;;;;;;;;;5017984;28;59266;-67
2023/05/27 04:16:37;;;;;;;0.50;0.40;;;;;;;;;;5017584;28;60731;-67
2023/05/27 04:19:03;;;;;;;0.57;0.40;;;;;;;;;;5020329;28;60323;-65
2023/05/27 04:21:28;;;;;;;0.43;0.43;;;;;;;;;;5022101;28;59184;-68
2023/05/27 04:23:53;;;;;;;1.23;0.67;;;;;;;;;;5021078;28;59647;-67
2023/05/27 04:26:19;;;;;;;0.63;0.43;;;;;;;;;;5020287;28;59886;-67
2023/05/27 04:28:45;;;;;;;0.73;0.50;;;;;;;;;;5021400;28;59514;-65
2023/05/27 04:31:12;;;;;;;1.05;0.73;;;;;;;;;;5023912;28;59419;-66
2023/05/27 04:33:39;;;;;;;0.60;0.60;;;;;;;;;;5018363;28;60776;-67
2023/05/27 04:36:04;;;;;;;0.70;0.60;;;;;;;;;;5019977;28;59524;-67
2023/05/27 04:38:31;;;;;;;0.80;0.60;;;;;;;;;;5021243;28;59540;-67
2023/05/27 04:40:56;;;;;;;0.63;0.47;;;;;;;;;;5018344;28;59675;-67
2023/05/27 04:43:22;;;;;;;1.35;0.60;;;;;;;;;;5020836;28;59118;-68
2023/05/27 04:45:48;;;;;;;0.60;0.50;;;;;;;;;;5019083;28;59535;-68
2023/05/27 04:48:13;;;;;;;0.70;0.60;;;;;;;;;;5014429;28;59269;-67
2023/05/27 04:50:39;;;;;;;1.05;0.98;;;;;;;;;;5015689;28;59422;-65
2023/05/27 04:53:04;;;;;;;0.80;0.37;;;;;;;;;;5012551;28;59280;-67
2023/05/27 04:55:30;;;;;;;1.27;0.75;;;;;;;;;;5010524;28;59897;-67
2023/05/27 04:57:56;;;;;;;0.32;0.30;;;;;;;;;;5013513;28;59644;-67
2023/05/27 05:00:36;;;;;;;0.70;0.70;;;;;;;;;;5015600;28;61606;-67
2023/05/27 05:03:02;;;;;;;0.77;0.65;;;;;;;;;;5012661;28;59207;-66
2023/05/27 05:05:27;;;;;;;0.95;0.77;;;;;;;;;;5017253;28;59539;-67
2023/05/27 05:07:53;;;;;;;3.00;0.73;;;;;;;;;;5014733;28;59049;-67
2023/05/27 05:10:18;;;;;;;0.43;0.43;;;;;;;;;;5015918;28;59553;-67
2023/05/27 05:12:43;;;;;;;0.87;0.40;;;;;;;;;;5020973;28;59212;-67
2023/05/27 05:15:08;;;;;;;0.60;0.60;;;;;;;;;;5017042;28;58810;-68
2023/05/27 05:17:34;;;;;;;0.77;0.77;;;;;;;;;;5016458;28;59609;-67
2023/05/27 05:19:59;;;;;;;0.57;0.45;;;;;;;;;;5015549;28;59155;-67
2023/05/27 05:22:26;;;;;;;0.73;0.50;;;;;;;;;;5015112;28;59496;-64
2023/05/27 05:24:51;;;;;;;0.68;0.52;;;;;;;;;;5013798;28;60020;-62
2023/05/27 05:27:16;;;;;;;0.60;0.60;;;;;;;;;;5019866;28;59279;-66
2023/05/27 05:29:41;;;;;;;0.53;0.43;;;;;;;;;;5016716;28;59789;-67
2023/05/27 05:32:07;;;;;;;0.77;0.57;;;;;;;;;;5014697;28;59201;-67
2023/05/27 05:34:32;;;;;;;0.73;0.50;;;;;;;;;;5012708;28;59434;-67
2023/05/27 05:36:57;;;;;;;0.70;0.60;;;;;;;;;;5013110;28;59652;-67
2023/05/27 05:39:23;;;;;;;0.65;0.40;;;;;;;;;;5014799;28;60178;-67
2023/05/27 05:41:48;;;;;;;2.33;0.40;;;;;;;;;;5013691;28;59604;-67
2023/05/27 05:44:13;;;;;;;1.38;0.45;;;;;;;;;;5015442;28;59523;-67
2023/05/27 05:46:38;;;;;;;0.53;0.40;;;;;;;;;;5013441;28;59185;-68
2023/05/27 05:49:04;;;;;;;0.65;0.47;;;;;;;;;;5013818;28;60614;-67
2023/05/27 05:51:30;;;;;;;1.05;0.65;;;;;;;;;;5019463;28;59503;-67
2023/05/27 05:53:56;;;;;;;0.77;0.60;;;;;;;;;;5015460;28;59471;-67
2023/05/27 05:56:21;;;;;;;0.50;0.33;;;;;;;;;;5015850;28;59298;-67
2023/05/27 05:58:47;;;;;;;0.82;0.50;;;;;;;;;;5015145;28;59480;-67
2023/05/27 06:01:12;;;;;;;0.65;0.50;;;;;;;;;;5016061;28;59273;-67
2023/05/27 06:03:37;;;;;;;0.70;0.40;;;;;;;;;;5013517;28;59043;-67
2023/05/27 06:06:02;;;;;;;0.53;0.53;;;;;;;;;;5015942;28;59719;-65
2023/05/27 06:08:28;;;;;;;0.40;0.40;;;;;;;;;;5010830;28;59695;-67
2023/05/27 06:10:53;;;;;;;0.28;0.20;;;;;;;;;;5014279;28;59240;-67
2023/05/27 06:13:18;;;;;;;0.33;0.33;;;;;;;;;;5011930;28;62138;-68
2023/05/27 06:15:43;;;;;;;0.47;0.47;;;;;;;;;;5014066;28;59633;-67
2023/05/27 06:18:08;;;;;;;0.43;0.40;;;;;;;;;;5011308;28;60504;-67
2023/05/27 06:20:33;;;;;;;3.03;0.50;;;;;;;;;;5006564;28;59233;-63
2023/05/27 06:22:58;;;;;;;0.30;0.30;;;;;;;;;;5009216;28;59323;-66
2023/05/27 06:25:24;;;;;;;0.60;0.60;;;;;;;;;;5009905;28;60379;-66
2023/05/27 06:27:49;;;;;;;0.77;0.50;;;;;;;;;;5022098;28;59893;-67
2023/05/27 06:30:14;;;;;;;0.90;0.50;;;;;;;;;;5019047;28;59309;-66
2023/05/27 06:32:39;;;;;;;2.00;1.00;;;;;;;;;;5017367;28;61781;-64
2023/05/27 06:35:05;;;;;;;0.50;0.50;;;;;;;;;;5020090;28;59445;-66
2023/05/27 06:37:30;;;;;;;0.50;0.30;;;;;;;;;;5018899;28;61267;-67
2023/05/27 06:39:55;;;;;;;1.10;0.83;;;;;;;;;;5019360;28;59310;-67
2023/05/27 06:42:22;;;;;;;1.17;0.67;;;;;;;;;;5017885;28;59179;-67
2023/05/27 06:44:47;;;;;;;1.38;0.50;;;;;;;;;;5018533;28;60110;-67
2023/05/27 06:47:12;;;;;;;1.00;0.93;;;;;;;;;;5016990;28;59797;-67
2023/05/27 06:49:37;;;;;;;0.80;0.73;;;;;;;;;;5020101;28;59502;-67
2023/05/27 06:52:03;;;;;;;1.60;0.50;;;;;;;;;;5020576;28;60221;-66
2023/05/27 06:54:28;;;;;;;2.97;0.50;;;;;;;;;;5019857;28;59250;-66
2023/05/27 06:56:54;;;;;;;3.67;0.90;;;;;;;;;;5023384;28;59203;-67
2023/05/27 06:59:19;;;;;;;1.70;1.13;;;;;;;;;;5021270;28;59655;-65
2023/05/27 07:01:44;;;;;;;2.10;0.82;;;;;;;;;;5017851;28;59573;-66
2023/05/27 07:04:09;;;;;;;5.17;2.13;;;;;;;;;;5019979;28;59132;-67
2023/05/27 07:06:36;;;;;;;7.27;3.00;;;;;;;;;;5028642;28;59499;-67
2023/05/27 07:09:02;;;;;;;5.70;1.92;;;;;;;;;;5024497;28;59365;-67
2023/05/27 07:11:27;;;;;;;12.17;3.53;;;;;;;;;;5029258;28;59554;-70
2023/05/27 07:13:52;;;;;;;9.00;3.08;;;;;;;;;;5023114;28;59873;-69
2023/05/27 07:16:17;;;;;;;8.40;3.37;;;;;;;;;;5029373;28;59507;-69
2023/05/27 07:18:43;;;;;;;10.65;3.97;;;;;;;;;;5031158;28;59835;-69
2023/05/27 07:21:08;;;;;;;14.07;4.87;;;;;;;;;;5027730;28;59182;-70
2023/05/27 07:23:33;;;;;;;15.25;3.90;;;;;;;;;;5028642;28;59257;-69
2023/05/27 07:25:58;;;;;;;10.40;4.60;;;;;;;;;;5029082;28;59787;-68
2023/05/27 07:28:23;;;;;;;14.48;4.85;;;;;;;;;;5029798;28;59517;-69
2023/05/27 07:30:48;;;;;;;8.70;3.63;;;;;;;;;;5021124;28;61995;-69
2023/05/27 07:33:14;;;;;;;14.57;3.85;;;;;;;;;;5016923;28;59358;-69
2023/05/27 07:35:40;;;;;;;15.47;3.50;;;;;;;;;;5017945;28;59430;-69
2023/05/27 07:38:05;;;;;;;15.63;4.50;;;;;;;;;;5027420;28;59309;-69
2023/05/27 07:40:30;;;;;;;8.57;3.78;;;;;;;;;;5021270;28;59353;-70
2023/05/27 07:42:55;;;;;;;10.02;4.18;;;;;;;;;;5023135;28;59544;-67
2023/05/27 07:45:22;;;;;;;10.45;3.08;;;;;;;;;;5017200;28;59648;-70
2023/05/27 07:47:47;;;;;;;11.07;2.92;;;;;;;;;;5022484;28;59307;-69
2023/05/27 07:50:13;;;;;;;7.17;2.57;;;;;;;;;;5023041;28;59708;-70
2023/05/27 07:52:39;;;;;;;10.52;3.70;;;;;;;;;;5022207;28;58891;-66
2023/05/27 07:55:05;;;;;;;7.78;3.90;;;;;;;;;;5022370;28;59431;-67
2023/05/27 07:57:30;;;;;;;8.50;2.78;;;;;;;;;;5024962;28;59404;-66
2023/05/27 07:59:55;;;;;;;9.43;2.53;;;;;;;;;;5021122;28;59677;-68
2023/05/27 08:02:21;;;;;;;14.30;2.63;;;;;;;;;;5021717;28;59976;-67
2023/05/27 08:04:46;;;;;;;12.05;3.55;;;;;;;;;;5021712;28;59530;-67
2023/05/27 08:07:12;;;;;;;11.00;3.57;;;;;;;;;;5023711;28;59570;-67
2023/05/27 08:09:37;;;;;;;8.30;2.53;;;;;;;;;;5023830;28;59207;-64
2023/05/27 08:12:02;;;;;;;6.23;3.03;;;;;;;;;;5022693;28;59471;-67
2023/05/27 08:14:27;;;;;;;9.10;2.10;;;;;;;;;;5023264;28;58530;-65
2023/05/27 08:16:53;;;;;;;15.10;3.25;;;;;;;;;;5024556;28;59241;-65
2023/05/27 08:19:18;;;;;;;6.25;2.30;;;;;;;;;;5022026;28;59093;-66
2023/05/27 08:21:43;;;;;;;8.73;2.55;;;;;;;;;;5023617;28;59763;-64
2023/05/27 08:24:08;;;;;;;6.23;2.43;;;;;;;;;;5023152;28;59263;-66
2023/05/27 08:26:34;;;;;;;12.27;2.30;;;;;;;;;;5024054;28;59545;-64
2023/05/27 08:28:59;;;;;;;5.90;3.00;;;;;;;;;;5021247;28;61744;-61
2023/05/27 08:31:24;;;;;;;9.70;2.80;;;;;;;;;;5021252;28;59797;-68
2023/05/27 08:33:50;;;;;;;6.50;2.90;;;;;;;;;;5022257;28;59059;-69
2023/05/27 08:36:16;;;;;;;8.93;1.80;;;;;;;;;;5022133;28;59160;-66
2023/05/27 08:38:41;;;;;;;7.07;3.05;;;;;;;;;;5023569;28;59563;-69
2023/05/27 08:41:07;;;;;;;4.13;2.05;;;;;;;;;;5026084;28;59251;-69
2023/05/27 08:43:33;;;;;;;5.43;2.07;;;;;;;;;;5023940;28;60765;-69
2023/05/27 08:46:00;;;;;;;4.53;2.95;;;;;;;;;;5024517;28;59586;-69
2023/05/27 08:48:25;;;;;;;4.65;1.60;;;;;;;;;;5022418;28;59283;-67
2023/05/27 08:50:50;;;;;;;8.13;2.47;;;;;;;;;;5020252;28;59534;-69
2023/05/27 08:53:16;;;;;;;5.27;1.80;;;;;;;;;;5024654;28;59124;-69
2023/05/27 08:55:42;;;;;;;5.45;2.40;;;;;;;;;;5017628;28;59593;-62
2023/05/27 08:58:08;;;;;;;3.15;1.45;;;;;;;;;;5022309;28;59664;-71
2023/05/27 09:00:34;;;;;;;3.38;1.75;;;;;;;;;;5023491;28;59608;-69
2023/05/27 09:02:59;;;;;;;4.53;1.40;;;;;;;;;;5022065;28;59358;-66
2023/05/27 09:05:25;;;;;;;4.43;1.97;;;;;;;;;;5019834;28;59461;-68
2023/05/27 09:07:51;;;;;;;5.45;2.28;;;;;;;;;;5019229;28;59318;-64
2023/05/27 09:10:16;;;;;;;4.95;1.90;;;;;;;;;;5020614;28;59676;-68
2023/05/27 09:12:44;;;;;;;5.80;2.30;;;;;;;;;;5017721;28;59112;-68
2023/05/27 09:15:10;;;;;;;3.30;1.90;;;;;;;;;;5014663;28;59683;-69
2023/05/27 09:17:39;;;;;;;5.57;1.58;;;;;;;;;;5012904;28;59730;-69
2023/05/27 09:20:07;;;;;;;6.22;1.83;;;;;;;;;;5018785;28;59312;-63
2023/05/27 09:22:32;;;;;;;4.10;2.22;;;;;;;;;;5019388;28;59293;-70
2023/05/27 09:24:57;;;;;;;7.17;2.37;;;;;;;;;;5010159;28;59591;-68
2023/05/27 09:27:26;;;;;;;6.33;1.93;;;;;;;;;;5017294;28;59622;-63
2023/05/27 09:29:52;;;;;;;5.57;2.00;;;;;;;;;;5013686;28;59054;-68
2023/05/27 09:32:24;;;;;;;5.97;1.98;;;;;;;;;;5015145;28;59426;-68
2023/05/27 09:34:49;;;;;;;8.20;2.20;;;;;;;;;;5015332;28;59604;-68
2023/05/27 09:37:17;;;;;;;9.23;2.47;;;;;;;;;;5014460;28;59336;-68
2023/05/27 09:39:42;;;;;;;7.32;2.00;;;;;;;;;;5016096;28;59487;-63
2023/05/27 09:42:07;;;;;;;5.80;2.00;;;;;;;;;;5013210;28;59198;-66
2023/05/27 09:44:37;;;;;;;7.30;2.50;;;;;;;;;;5014441;28;59711;-64
2023/05/27 09:47:03;;;;;;;6.75;2.15;;;;;;;;;;5015714;28;59294;-64
2023/05/27 09:49:29;;;;;;;4.55;2.00;;;;;;;;;;5017658;28;59356;-67
2023/05/27 09:51:57;;;;;;;8.35;2.30;;;;;;;;;;5018548;28;59568;-66
2023/05/27 09:54:22;;;;;;;2.30;1.17;;;;;;;;;;5010498;28;60854;-68
2023/05/27 09:56:48;;;;;;;5.73;1.83;;;;;;;;;;5015160;28;59380;-65
2023/05/27 09:59:14;;;;;;;10.00;2.10;;;;;;;;;;5015766;28;59403;-66
2023/05/27 10:01:40;;;;;;;2.83;1.83;;;;;;;;;;5013590;28;61104;-64
2023/05/27 10:04:06;;;;;;;6.03;1.73;;;;;;;;;;5012348;28;59271;-67
2023/05/27 10:06:32;;;;;;;7.20;2.67;;;;;;;;;;5015021;28;59292;-70
2023/05/27 10:08:58;;;;;;;6.55;1.73;;;;;;;;;;5015804;28;59379;-70
2023/05/27 10:11:23;;;;;;;5.70;1.45;;;;;;;;;;5019142;28;59374;-68
2023/05/27 10:13:49;;;;;;;6.17;1.80;;;;;;;;;;5017040;28;60059;-69
2023/05/27 10:16:26;;;;;;;4.07;1.92;;;;;;;;;;5019587;28;61009;-69
2023/05/27 10:18:55;;;;;;;4.57;1.50;;;;;;;;;;5021430;28;59207;-69
2023/05/27 10:21:21;;;;;;;6.95;2.00;;;;;;;;;;5014879;28;59641;-68
2023/05/27 10:23:55;;;;;;;7.57;2.13;;;;;;;;;;5019464;28;59354;-69
2023/05/27 10:26:30;;;;;;;6.47;1.60;;;;;;;;;;5016652;28;61064;-70
2023/05/27 10:29:04;;;;;;;8.35;1.92;;;;;;;;;;5016107;28;58924;-68
2023/05/27 10:31:30;;;;;;;4.35;2.28;;;;;;;;;;5023467;28;58868;-69
2023/05/27 10:33:57;;;;;;;14.07;3.10;;;;;;;;;;5015422;28;59644;-68
2023/05/27 10:36:23;;;;;;;4.75;2.55;;;;;;;;;;5020037;28;59185;-70
2023/05/27 10:38:58;;;;;;;12.32;3.47;;;;;;;;;;5020578;28;59249;-70
2023/05/27 10:41:23;;;;;;;15.23;2.45;;;;;;;;;;5016364;28;59360;-68
2023/05/27 10:43:58;;;;;;;12.95;2.60;;;;;;;;;;5021009;28;59518;-70
2023/05/27 10:46:24;;;;;;;9.30;3.33;;;;;;;;;;5015883;28;59586;-69
2023/05/27 10:48:49;;;;;;;5.47;2.38;;;;;;;;;;5023162;28;59773;-64
2023/05/27 10:51:15;;;;;;;6.13;2.47;;;;;;;;;;5018125;28;59306;-70
2023/05/27 10:53:40;;;;;;;5.63;2.07;;;;;;;;;;5014655;28;59385;-69
2023/05/27 10:56:05;;;;;;;6.10;2.22;;;;;;;;;;5017479;28;59320;-68
2023/05/27 10:58:33;;;;;;;6.13;2.13;;;;;;;;;;5018699;28;59263;-69
2023/05/27 11:01:00;;;;;;;10.88;1.63;;;;;;;;;;5013986;28;59368;-68
2023/05/27 11:03:27;;;;;;;5.67;2.23;;;;;;;;;;5014796;28;59800;-68
2023/05/27 11:06:05;;;;;;;8.98;2.45;;;;;;;;;;5015588;28;59185;-64
2023/05/27 11:08:31;;;;;;;7.32;3.08;;;;;;;;;;5020968;28;59583;-64
2023/05/27 11:10:57;;;;;;;8.65;2.17;;;;;;;;;;5023626;28;59462;-64
2023/05/27 11:13:28;;;;;;;4.38;1.50;;;;;;;;;;5025233;28;59334;-64
2023/05/27 11:15:54;;;;;;;5.20;2.35;;;;;;;;;;5027139;28;59301;-65
2023/05/27 11:18:19;;;;;;;6.82;2.10;;;;;;;;;;5024205;28;58850;-63
2023/05/27 11:20:44;;;;;;;4.20;2.15;;;;;;;;;;5025614;28;59803;-61
2023/05/27 11:23:09;;;;;;;5.87;1.70;;;;;;;;;;5021170;28;59067;-65
2023/05/27 11:25:44;;;;;;;4.77;2.73;;;;;;;;;;5027389;28;59569;-65
2023/05/27 11:28:16;;;;;;;6.07;2.63;;;;;;;;;;5024637;28;61876;-64
2023/05/27 11:30:42;;;;;;;3.67;1.98;;;;;;;;;;5025428;28;59338;-64
2023/05/27 11:33:07;;;;;;;7.93;1.58;;;;;;;;;;5025785;28;59521;-64
2023/05/27 11:35:32;;;;;;;4.95;1.80;;;;;;;;;;5024908;28;59234;-64
2023/05/27 11:37:58;;;;;;;4.47;1.85;;;;;;;;;;5023948;28;59521;-64
2023/05/27 11:40:23;;;;;;;5.93;2.40;;;;;;;;;;5025317;28;60004;-63
2023/05/27 11:42:49;;;;;;;11.98;2.83;;;;;;;;;;5027481;28;59425;-63
2023/05/27 11:45:15;;;;;;;9.55;1.90;;;;;;;;;;5021273;28;60011;-64
2023/05/27 11:47:40;;;;;;;9.63;2.13;;;;;;;;;;5024592;28;59558;-65
2023/05/27 11:50:06;;;;;;;4.75;1.63;;;;;;;;;;5023634;28;59078;-64
2023/05/27 11:52:31;;;;;;;5.03;1.70;;;;;;;;;;5025170;28;59481;-64
2023/05/27 11:54:56;;;;;;;4.15;1.90;;;;;;;;;;5024612;28;59493;-65
2023/05/27 11:57:21;;;;;;;3.53;2.13;;;;;;;;;;5016901;28;59551;-65
2023/05/27 11:59:46;;;;;;;2.93;2.10;;;;;;;;;;5017093;28;59219;-65
2023/05/27 12:02:12;;;;;;;5.27;2.10;;;;;;;;;;5023044;28;59481;-65
2023/05/27 12:04:37;;;;;;;3.28;1.40;;;;;;;;;;5023325;28;59238;-65
2023/05/27 12:07:02;;;;;;;4.97;1.60;;;;;;;;;;5023332;28;59797;-65
2023/05/27 12:09:27;;;;;;;6.40;2.83;;;;;;;;;;5020023;28;59496;-65
2023/05/27 12:11:52;;;;;;;4.20;2.00;;;;;;;;;;5025428;28;59140;-65
2023/05/27 12:14:18;;;;;;;8.17;3.23;;;;;;;;;;5023083;28;59336;-65
2023/05/27 12:16:43;;;;;;;8.07;2.03;;;;;;;;;;5025935;28;59186;-64
2023/05/27 12:19:09;;;;;;;2.88;1.60;;;;;;;;;;5026417;28;59300;-65
2023/05/27 12:21:36;;;;;;;2.63;1.73;;;;;;;;;;5023596;28;65693;-66
2023/05/27 12:24:01;;;;;;;3.13;1.65;;;;;;;;;;5022926;28;60379;-65
2023/05/27 12:26:26;;;;;;;6.28;2.17;;;;;;;;;;5022735;28;59238;-64
2023/05/27 12:28:51;;;;;;;3.37;2.03;;;;;;;;;;5024746;28;59528;-65
2023/05/27 12:31:17;;;;;;;2.30;1.17;;;;;;;;;;5023743;28;59773;-65
2023/05/27 12:33:42;;;;;;;1.95;1.13;;;;;;;;;;5026523;28;59423;-65
2023/05/27 12:36:07;;;;;;;3.50;1.70;;;;;;;;;;5024038;28;59162;-65
2023/05/27 12:38:33;;;;;;;3.23;1.43;;;;;;;;;;5025703;28;59282;-65
2023/05/27 12:40:58;;;;;;;2.53;1.43;;;;;;;;;;5027537;28;59264;-65
2023/05/27 12:43:23;;;;;;;3.00;1.20;;;;;;;;;;5023395;28;59668;-65
2023/05/27 12:45:48;;;;;;;2.00;1.40;;;;;;;;;;5023687;28;59507;-65
2023/05/27 12:48:14;;;;;;;3.43;1.40;;;;;;;;;;5013565;28;59518;-64
2023/05/27 12:50:39;;;;;;;2.00;1.47;;;;;;;;;;5017547;28;60384;-64
2023/05/27 12:53:04;;;;;;;2.63;1.42;;;;;;;;;;5016579;28;60825;-64
2023/05/27 12:55:30;;;;;;;2.53;1.13;;;;;;;;;;5016529;28;59807;-65
2023/05/27 12:57:55;;;;;;;1.90;1.23;;;;;;;;;;5017669;28;59587;-62
2023/05/27 13:00:21;;;;;;;3.10;1.53;;;;;;;;;;5024763;28;60080;-65
2023/05/27 13:02:47;;;;;;;1.35;1.25;;;;;;;;;;5015366;28;59574;-65
2023/05/27 13:05:12;;;;;;;2.10;1.35;;;;;;;;;;5023505;28;59282;-65
2023/05/27 13:07:41;;;;;;;1.42;1.33;;;;;;;;;;5024985;28;59296;-64
2023/05/27 13:10:11;;;;;;;2.67;1.38;;;;;;;;;;5015808;28;59269;-64
2023/05/27 13:12:36;;;;;;;1.58;1.10;;;;;;;;;;5018514;28;62773;-64
2023/05/27 13:15:06;;;;;;;1.98;1.42;;;;;;;;;;5016805;28;58907;-63
2023/05/27 13:17:31;;;;;;;1.25;1.05;;;;;;;;;;5018425;28;59851;-65
2023/05/27 13:19:56;;;;;;;1.70;1.02;;;;;;;;;;5020654;28;59783;-65
2023/05/27 13:22:22;;;;;;;4.18;1.60;;;;;;;;;;5016859;28;59222;-65
2023/05/27 13:24:48;;;;;;;0.85;0.80;;;;;;;;;;5019431;28;59231;-65
2023/05/27 13:27:13;;;;;;;2.07;1.60;;;;;;;;;;5013828;28;59011;-64
2023/05/27 13:29:40;;;;;;;1.57;1.10;;;;;;;;;;5015774;28;59179;-65
2023/05/27 13:32:06;;;;;;;2.45;1.10;;;;;;;;;;5016213;28;59962;-62
2023/05/27 13:34:31;;;;;;;2.30;1.45;;;;;;;;;;5017548;28;59750;-64
2023/05/27 13:36:56;;;;;;;2.17;1.10;;;;;;;;;;5018488;28;59264;-64
2023/05/27 13:39:21;;;;;;;1.10;1.00;;;;;;;;;;5017578;28;59334;-61
2023/05/27 13:41:46;;;;;;;11.90;2.20;;;;;;;;;;5018502;28;59429;-65
2023/05/27 13:44:12;;;;;;;5.27;1.67;;;;;;;;;;5018402;28;59391;-65
2023/05/27 13:46:37;;;;;;;10.47;2.10;;;;;;;;;;5024980;28;59767;-64
2023/05/27 13:49:02;;;;;;;16.20;2.83;;;;;;;;;;5024032;28;59697;-65
2023/05/27 13:51:29;;;;;;;6.23;3.37;;;;;;;;;;5023520;28;59311;-65
2023/05/27 13:53:54;;;;;;;5.82;2.20;;;;;;;;;;5020862;28;59409;-65
2023/05/27 13:56:20;;;;;;;3.38;1.50;;;;;;;;;;5024161;28;59193;-65
2023/05/27 13:58:45;;;;;;;12.05;3.35;;;;;;;;;;5024513;28;59498;-64
2023/05/27 14:01:11;;;;;;;4.63;1.97;;;;;;;;;;5021217;28;59308;-65
2023/05/27 14:03:36;;;;;;;3.70;2.08;;;;;;;;;;5025627;28;58627;-65
2023/05/27 14:06:02;;;;;;;4.35;2.38;;;;;;;;;;5022485;28;60630;-65
2023/05/27 14:08:27;;;;;;;5.73;1.83;;;;;;;;;;5024961;28;59716;-64
2023/05/27 14:10:52;;;;;;;7.68;2.35;;;;;;;;;;5021098;28;59676;-65
2023/05/27 14:13:17;;;;;;;5.85;2.15;;;;;;;;;;5017157;28;59712;-65
2023/05/27 14:15:43;;;;;;;7.70;2.43;;;;;;;;;;5021799;28;59225;-65
2023/05/27 14:18:08;;;;;;;8.27;2.20;;;;;;;;;;5023427;28;59211;-65
2023/05/27 14:20:33;;;;;;;5.93;1.77;;;;;;;;;;5022786;28;59063;-64
2023/05/27 14:22:59;;;;;;;8.03;2.40;;;;;;;;;;5022858;28;59519;-65
2023/05/27 14:25:25;;;;;;;5.45;3.20;;;;;;;;;;5024165;28;59540;-65
2023/05/27 14:27:50;;;;;;;8.27;1.97;;;;;;;;;;5021511;28;59611;-64
2023/05/27 14:30:15;;;;;;;7.65;1.73;;;;;;;;;;5025291;28;59194;-64
2023/05/27 14:32:40;;;;;;;11.15;2.63;;;;;;;;;;5024753;28;59198;-66
2023/05/27 14:35:06;;;;;;;5.20;2.37;;;;;;;;;;5021698;28;59242;-65